Bandon, OR

11:46 PM PDT on April 23, 2017 (GMT -0700)
s.e. bandon | | Change Station

Elev 69 ft 43.12 °N, 124.40 °W | Updated 22 seconds ago

Mostly Cloudy
Mostly Cloudy
46.1 °F
Feels Like 44 °F
N
4.0
Wind Variable Wind from ESE

Today
High -- | Low -- °F
--% Chance of Precip.
Yesterday
High -- | Low -- °F
Precip. -- in
Pressure 29.89 in
Visibility 10.0 miles
Clouds Few 1400 ft
Few 4600 ft
Overcast 5000 ft
Windchill 44 °F
Dew Point 44 °F
Humidity 93%
Rainfall 0.66 in
Snow Depth Not available.
6:22 AM 8:10 PM
Waning Crescent, 7% visible
METAR KOTH 240635Z 19011G16KT 10SM FEW014 FEW046 OVC050 09/08 A2989 RMK AO1 P0004
Pressure 29.89 in
Visibility 10.0 miles
Clouds Few 1400 ft
Few 4600 ft
Overcast 5000 ft
Windchill 44 °F
Dew Point 44 °F
Humidity 93%
Rainfall 0.66 in
Snow Depth Not available.
6:22 AM 8:10 PM
Waning Crescent, 7% visible
METAR KOTH 240635Z 19011G16KT 10SM FEW014 FEW046 OVC050 09/08 A2989 RMK AO1 P0004

Get Severe Weather Alerts

Thanks for signing up!

Be on the lookout for a verification email in your inbox.

You'll start receiving the daily forecast at 8 AM.

×

10-Day Weather Forecast

Almanac

Astronomy

Apr. 23, 2017 Rise Set
Actual Time
Civil Twilight
Nautical Twilight
Astronomical Twilight
Moon
Length of Visible Light
Length of Day
Tomorrow will be .
, % of the Moon is Illuminated

Today's Extremes

State Highs State Lows

Community

WunderPhotos

WunderBlog® & News

Nearby

Air Quality

  Air Quality AQ Index Pollutant
Not available.

Snow Depth

Station Depth Elevation

Earthquake Activity

City Distance Mag. Time & Date
Minimum magnitude displayed is 2.5.

Coastal Water Temperatures

Place Temperature

Stations

Nearby Weather Stations

Station Location Temp. Windchill Dew Point Humidity Wind Precip. Elev Updated Type
                   

Watches & Warnings

There are currently no watches in effect.